Terminal Aerodrome Forecast
Issued by NWS Lake Charles, LA

Home | Current Version | Previous Version | Text Only | Print | Product List | Glossary On
Versions: 1 2 3 4 5 6 7 8 9 10 11 12 13 14 15
000
FTUS44 KLCH 220520
TAFLCH
TAF
KLCH 220520Z 2206/2306 07009KT P6SM BKN035 OVC050
     FM221000 03012KT P6SM SCT050
     FM221500 01015G23KT P6SM SKC
     FM230100 35008KT P6SM SKC=

USA.gov is the U.S. government's official web portal to all federal, state and local government web resources and services.